sensor_id;sensor_type;location;lat;lon;timestamp;pressure;altitude;pressure_sealevel;temperature;humidity
48824;BME280;34640;53.590;10.054;2022-10-29T00:01:58;101520.41;;;16.41;100.00
48824;BME280;34640;53.590;10.054;2022-10-29T00:04:33;101521.16;;;16.39;100.00
48824;BME280;34640;53.590;10.054;2022-10-29T00:07:06;101530.84;;;16.40;100.00
48824;BME280;34640;53.590;10.054;2022-10-29T00:09:40;101524.69;;;16.39;100.00
48824;BME280;34640;53.590;10.054;2022-10-29T00:12:14;101532.56;;;16.39;100.00
48824;BME280;34640;53.590;10.054;2022-10-29T00:14:47;101541.38;;;16.40;100.00
48824;BME280;34640;53.590;10.054;2022-10-29T00:17:21;101542.06;;;16.36;100.00
48824;BME280;34640;53.590;10.054;2022-10-29T00:19:55;101538.31;;;16.31;100.00
48824;BME280;34640;53.590;10.054;2022-10-29T00:22:29;101531.16;;;16.28;100.00
48824;BME280;34640;53.590;10.054;2022-10-29T00:25:03;101529.88;;;16.20;100.00
48824;BME280;34640;53.590;10.054;2022-10-29T00:27:37;101541.69;;;16.10;100.00
48824;BME280;34640;53.590;10.054;2022-10-29T00:30:12;101538.81;;;16.06;100.00
48824;BME280;34640;53.590;10.054;2022-10-29T00:32:45;101542.34;;;16.06;100.00
48824;BME280;34640;53.590;10.054;2022-10-29T00:35:20;101547.13;;;15.97;100.00
48824;BME280;34640;53.590;10.054;2022-10-29T00:37:54;101553.81;;;15.91;100.00
48824;BME280;34640;53.590;10.054;2022-10-29T00:40:28;101556.13;;;15.84;100.00
48824;BME280;34640;53.590;10.054;2022-10-29T00:43:12;101548.81;;;15.79;100.00
48824;BME280;34640;53.590;10.054;2022-10-29T00:45:48;101550.38;;;15.75;100.00
48824;BME280;34640;53.590;10.054;2022-10-29T00:48:26;101560.66;;;15.71;100.00
48824;BME280;34640;53.590;10.054;2022-10-29T00:51:03;101571.09;;;15.69;100.00
48824;BME280;34640;53.590;10.054;2022-10-29T00:53:42;101566.59;;;15.67;100.00
48824;BME280;34640;53.590;10.054;2022-10-29T00:56:18;101568.78;;;15.59;100.00
48824;BME280;34640;53.590;10.054;2022-10-29T00:58:52;101570.25;;;15.54;100.00
48824;BME280;34640;53.590;10.054;2022-10-29T01:01:26;101569.19;;;15.50;100.00
48824;BME280;34640;53.590;10.054;2022-10-29T01:04:00;101569.84;;;15.46;100.00
48824;BME280;34640;53.590;10.054;2022-10-29T01:06:36;101575.69;;;15.41;100.00
48824;BME280;34640;53.590;10.054;2022-10-29T01:09:10;101580.75;;;15.38;100.00
48824;BME280;34640;53.590;10.054;2022-10-29T01:11:52;101587.09;;;15.41;100.00
48824;BME280;34640;53.590;10.054;2022-10-29T01:14:39;101579.09;;;15.40;100.00
48824;BME280;34640;53.590;10.054;2022-10-29T01:17:22;101578.03;;;15.36;100.00
48824;BME280;34640;53.590;10.054;2022-10-29T01:23:19;101581.25;;;15.31;100.00
48824;BME280;34640;53.590;10.054;2022-10-29T01:26:12;101589.69;;;15.25;100.00
48824;BME280;34640;53.590;10.054;2022-10-29T01:29:03;101577.25;;;15.21;100.00
48824;BME280;34640;53.590;10.054;2022-10-29T01:31:48;101581.59;;;15.20;100.00
48824;BME280;34640;53.590;10.054;2022-10-29T01:34:26;101589.25;;;15.17;100.00
48824;BME280;34640;53.590;10.054;2022-10-29T01:37:10;101588.28;;;15.15;100.00
48824;BME280;34640;53.590;10.054;2022-10-29T01:39:51;101598.69;;;15.14;100.00
48824;BME280;34640;53.590;10.054;2022-10-29T01:42:30;101596.72;;;15.10;100.00
48824;BME280;34640;53.590;10.054;2022-10-29T01:45:10;101601.81;;;15.07;100.00
48824;BME280;34640;53.590;10.054;2022-10-29T01:47:53;101592.78;;;15.02;100.00
48824;BME280;34640;53.590;10.054;2022-10-29T01:50:28;101590.00;;;14.98;100.00
48824;BME280;34640;53.590;10.054;2022-10-29T01:53:03;101592.34;;;14.94;100.00
48824;BME280;34640;53.590;10.054;2022-10-29T01:55:37;101595.63;;;14.90;100.00
48824;BME280;34640;53.590;10.054;2022-10-29T01:58:11;101590.22;;;14.87;100.00
48824;BME280;34640;53.590;10.054;2022-10-29T02:00:48;101590.88;;;14.83;100.00
48824;BME280;34640;53.590;10.054;2022-10-29T02:03:33;101599.56;;;14.82;100.00
48824;BME280;34640;53.590;10.054;2022-10-29T02:06:14;101601.09;;;14.78;100.00
48824;BME280;34640;53.590;10.054;2022-10-29T02:08:56;101599.31;;;14.77;100.00
48824;BME280;34640;53.590;10.054;2022-10-29T02:11:41;101605.25;;;14.75;100.00
48824;BME280;34640;53.590;10.054;2022-10-29T02:14:21;101602.38;;;14.70;100.00
48824;BME280;34640;53.590;10.054;2022-10-29T02:16:55;101606.63;;;14.68;100.00
48824;BME280;34640;53.590;10.054;2022-10-29T02:19:32;101607.19;;;14.62;100.00
48824;BME280;34640;53.590;10.054;2022-10-29T02:22:06;101607.94;;;14.60;100.00
48824;BME280;34640;53.590;10.054;2022-10-29T02:24:39;101599.00;;;14.56;100.00
48824;BME280;34640;53.590;10.054;2022-10-29T02:27:13;101589.13;;;14.52;100.00
48824;BME280;34640;53.590;10.054;2022-10-29T02:29:47;101600.34;;;14.50;100.00
48824;BME280;34640;53.590;10.054;2022-10-29T02:32:20;101592.22;;;14.45;100.00
48824;BME280;34640;53.590;10.054;2022-10-29T02:34:55;101595.53;;;14.43;100.00
48824;BME280;34640;53.590;10.054;2022-10-29T02:37:29;101585.63;;;14.37;100.00
48824;BME280;34640;53.590;10.054;2022-10-29T02:40:04;101593.22;;;14.32;100.00
48824;BME280;34640;53.590;10.054;2022-10-29T02:42:37;101590.31;;;14.28;100.00
48824;BME280;34640;53.590;10.054;2022-10-29T02:45:11;101590.13;;;14.25;100.00
48824;BME280;34640;53.590;10.054;2022-10-29T02:47:45;101585.53;;;14.21;100.00
48824;BME280;34640;53.590;10.054;2022-10-29T02:50:20;101581.94;;;14.19;100.00
48824;BME280;34640;53.590;10.054;2022-10-29T02:52:53;101580.94;;;14.17;100.00
48824;BME280;34640;53.590;10.054;2022-10-29T02:55:27;101576.78;;;14.20;100.00
48824;BME280;34640;53.590;10.054;2022-10-29T02:58:01;101572.53;;;14.22;100.00
48824;BME280;34640;53.590;10.054;2022-10-29T03:00:34;101566.72;;;14.28;100.00
48824;BME280;34640;53.590;10.054;2022-10-29T03:03:08;101572.25;;;14.32;100.00
48824;BME280;34640;53.590;10.054;2022-10-29T03:05:43;101583.06;;;14.38;100.00
48824;BME280;34640;53.590;10.054;2022-10-29T03:08:20;101585.88;;;14.42;100.00
48824;BME280;34640;53.590;10.054;2022-10-29T03:10:54;101588.78;;;14.46;100.00
48824;BME280;34640;53.590;10.054;2022-10-29T03:13:28;101587.41;;;14.53;100.00
48824;BME280;34640;53.590;10.054;2022-10-29T03:16:02;101583.34;;;14.58;100.00
48824;BME280;34640;53.590;10.054;2022-10-29T03:18:36;101588.69;;;14.59;100.00
48824;BME280;34640;53.590;10.054;2022-10-29T03:21:11;101591.47;;;14.62;100.00
48824;BME280;34640;53.590;10.054;2022-10-29T03:23:45;101584.66;;;14.66;100.00
48824;BME280;34640;53.590;10.054;2022-10-29T03:26:19;101589.19;;;14.68;100.00
48824;BME280;34640;53.590;10.054;2022-10-29T03:28:54;101594.59;;;14.72;100.00
48824;BME280;34640;53.590;10.054;2022-10-29T03:31:28;101595.41;;;14.71;100.00
48824;BME280;34640;53.590;10.054;2022-10-29T03:34:01;101595.25;;;14.67;100.00
48824;BME280;34640;53.590;10.054;2022-10-29T03:36:36;101591.16;;;14.73;100.00
48824;BME280;34640;53.590;10.054;2022-10-29T03:39:10;101575.41;;;14.73;100.00
48824;BME280;34640;53.590;10.054;2022-10-29T03:41:43;101574.88;;;14.78;100.00
48824;BME280;34640;53.590;10.054;2022-10-29T03:44:17;101578.41;;;14.79;100.00
48824;BME280;34640;53.590;10.054;2022-10-29T03:46:50;101582.91;;;14.81;100.00
48824;BME280;34640;53.590;10.054;2022-10-29T03:49:24;101589.41;;;14.88;100.00
48824;BME280;34640;53.590;10.054;2022-10-29T03:51:59;101596.69;;;14.93;100.00
48824;BME280;34640;53.590;10.054;2022-10-29T03:54:32;101594.88;;;14.92;100.00
48824;BME280;34640;53.590;10.054;2022-10-29T03:57:06;101584.22;;;14.89;100.00
48824;BME280;34640;53.590;10.054;2022-10-29T03:59:40;101588.66;;;14.90;100.00
48824;BME280;34640;53.590;10.054;2022-10-29T04:02:18;101590.28;;;14.88;100.00
48824;BME280;34640;53.590;10.054;2022-10-29T04:04:52;101594.88;;;14.92;100.00
48824;BME280;34640;53.590;10.054;2022-10-29T04:07:27;101597.59;;;14.94;100.00
48824;BME280;34640;53.590;10.054;2022-10-29T04:10:00;101591.94;;;14.86;100.00
48824;BME280;34640;53.590;10.054;2022-10-29T04:12:34;101578.56;;;14.82;100.00
48824;BME280;34640;53.590;10.054;2022-10-29T04:15:08;101575.13;;;14.83;100.00
48824;BME280;34640;53.590;10.054;2022-10-29T04:17:42;101575.50;;;14.74;100.00
48824;BME280;34640;53.590;10.054;2022-10-29T04:20:16;101570.00;;;14.70;100.00
48824;BME280;34640;53.590;10.054;2022-10-29T04:23:11;101573.94;;;14.61;100.00
48824;BME280;34640;53.590;10.054;2022-10-29T04:26:04;101570.00;;;14.53;100.00
48824;BME280;34640;53.590;10.054;2022-10-29T04:28:58;101569.53;;;14.46;100.00
48824;BME280;34640;53.590;10.054;2022-10-29T04:31:32;101577.56;;;14.49;100.00
48824;BME280;34640;53.590;10.054;2022-10-29T04:34:05;101586.25;;;14.48;100.00
48824;BME280;34640;53.590;10.054;2022-10-29T04:36:39;101595.00;;;14.48;100.00
48824;BME280;34640;53.590;10.054;2022-10-29T04:39:14;101595.66;;;14.44;100.00
48824;BME280;34640;53.590;10.054;2022-10-29T04:41:53;101593.66;;;14.40;100.00
48824;BME280;34640;53.590;10.054;2022-10-29T04:44:27;101592.47;;;14.35;100.00
48824;BME280;34640;53.590;10.054;2022-10-29T04:47:00;101600.25;;;14.33;100.00
48824;BME280;34640;53.590;10.054;2022-10-29T04:49:34;101596.53;;;14.30;100.00
48824;BME280;34640;53.590;10.054;2022-10-29T04:52:08;101592.09;;;14.29;100.00
48824;BME280;34640;53.590;10.054;2022-10-29T04:54:43;101587.69;;;14.28;100.00
48824;BME280;34640;53.590;10.054;2022-10-29T04:57:16;101582.25;;;14.25;100.00
48824;BME280;34640;53.590;10.054;2022-10-29T04:59:50;101591.84;;;14.24;100.00
48824;BME280;34640;53.590;10.054;2022-10-29T05:02:23;101591.94;;;14.26;100.00
48824;BME280;34640;53.590;10.054;2022-10-29T05:04:57;101587.59;;;14.26;100.00
48824;BME280;34640;53.590;10.054;2022-10-29T05:07:31;101594.56;;;14.26;100.00
48824;BME280;34640;53.590;10.054;2022-10-29T05:10:06;101607.75;;;14.27;100.00
48824;BME280;34640;53.590;10.054;2022-10-29T05:12:40;101622.84;;;14.31;100.00
48824;BME280;34640;53.590;10.054;2022-10-29T05:15:14;101619.75;;;14.38;100.00
48824;BME280;34640;53.590;10.054;2022-10-29T05:17:48;101618.88;;;14.38;100.00
48824;BME280;34640;53.590;10.054;2022-10-29T05:20:22;101612.91;;;14.41;100.00
48824;BME280;34640;53.590;10.054;2022-10-29T05:22:57;101610.47;;;14.44;100.00
48824;BME280;34640;53.590;10.054;2022-10-29T05:25:35;101620.22;;;14.46;100.00
48824;BME280;34640;53.590;10.054;2022-10-29T05:28:11;101624.38;;;14.43;100.00
48824;BME280;34640;53.590;10.054;2022-10-29T05:30:46;101634.97;;;14.44;100.00
48824;BME280;34640;53.590;10.054;2022-10-29T05:33:20;101624.09;;;14.38;100.00
48824;BME280;34640;53.590;10.054;2022-10-29T05:35:54;101624.75;;;14.34;100.00
48824;BME280;34640;53.590;10.054;2022-10-29T05:38:28;101607.31;;;14.34;100.00
48824;BME280;34640;53.590;10.054;2022-10-29T05:41:03;101608.28;;;14.36;100.00
48824;BME280;34640;53.590;10.054;2022-10-29T05:43:37;101614.25;;;14.34;100.00
48824;BME280;34640;53.590;10.054;2022-10-29T05:46:11;101609.03;;;14.34;100.00
48824;BME280;34640;53.590;10.054;2022-10-29T05:48:44;101611.44;;;14.31;100.00
48824;BME280;34640;53.590;10.054;2022-10-29T05:51:18;101615.16;;;14.34;100.00
48824;BME280;34640;53.590;10.054;2022-10-29T05:53:52;101613.53;;;14.36;100.00
48824;BME280;34640;53.590;10.054;2022-10-29T05:56:27;101620.66;;;14.39;100.00
48824;BME280;34640;53.590;10.054;2022-10-29T05:59:00;101618.34;;;14.44;100.00
48824;BME280;34640;53.590;10.054;2022-10-29T06:01:34;101622.03;;;14.47;100.00
48824;BME280;34640;53.590;10.054;2022-10-29T06:04:08;101626.53;;;14.50;100.00
48824;BME280;34640;53.590;10.054;2022-10-29T06:06:42;101616.88;;;14.49;100.00
48824;BME280;34640;53.590;10.054;2022-10-29T06:09:15;101626.03;;;14.55;100.00
48824;BME280;34640;53.590;10.054;2022-10-29T06:11:50;101612.63;;;14.51;100.00
48824;BME280;34640;53.590;10.054;2022-10-29T06:14:24;101608.13;;;14.48;100.00
48824;BME280;34640;53.590;10.054;2022-10-29T06:16:57;101615.72;;;14.44;100.00
48824;BME280;34640;53.590;10.054;2022-10-29T06:19:31;101614.59;;;14.40;100.00
48824;BME280;34640;53.590;10.054;2022-10-29T06:22:05;101618.22;;;14.42;100.00
48824;BME280;34640;53.590;10.054;2022-10-29T06:24:39;101618.59;;;14.48;100.00
48824;BME280;34640;53.590;10.054;2022-10-29T06:27:14;101617.88;;;14.51;100.00
48824;BME280;34640;53.590;10.054;2022-10-29T06:29:48;101624.66;;;14.47;100.00
48824;BME280;34640;53.590;10.054;2022-10-29T06:32:22;101623.28;;;14.39;100.00
48824;BME280;34640;53.590;10.054;2022-10-29T06:34:55;101619.50;;;14.34;100.00
48824;BME280;34640;53.590;10.054;2022-10-29T06:37:29;101615.44;;;14.39;100.00
48824;BME280;34640;53.590;10.054;2022-10-29T06:40:05;101618.94;;;14.40;100.00
48824;BME280;34640;53.590;10.054;2022-10-29T06:42:40;101627.38;;;14.49;100.00
48824;BME280;34640;53.590;10.054;2022-10-29T06:45:14;101625.56;;;14.48;100.00
48824;BME280;34640;53.590;10.054;2022-10-29T06:47:48;101617.22;;;14.40;100.00
48824;BME280;34640;53.590;10.054;2022-10-29T06:50:22;101619.59;;;14.35;100.00
48824;BME280;34640;53.590;10.054;2022-10-29T06:52:56;101629.59;;;14.43;100.00
48824;BME280;34640;53.590;10.054;2022-10-29T06:55:31;101641.38;;;14.49;100.00
48824;BME280;34640;53.590;10.054;2022-10-29T06:58:11;101645.72;;;14.49;100.00
48824;BME280;34640;53.590;10.054;2022-10-29T07:00:46;101655.47;;;14.51;100.00
48824;BME280;34640;53.590;10.054;2022-10-29T07:03:20;101647.06;;;14.57;100.00
48824;BME280;34640;53.590;10.054;2022-10-29T07:05:54;101651.75;;;14.62;100.00
48824;BME280;34640;53.590;10.054;2022-10-29T07:08:28;101643.34;;;14.68;100.00
48824;BME280;34640;53.590;10.054;2022-10-29T07:11:04;101656.63;;;14.71;100.00
48824;BME280;34640;53.590;10.054;2022-10-29T07:13:40;101655.19;;;14.76;100.00
48824;BME280;34640;53.590;10.054;2022-10-29T07:16:13;101664.78;;;14.76;100.00
48824;BME280;34640;53.590;10.054;2022-10-29T07:18:47;101663.22;;;14.79;100.00
48824;BME280;34640;53.590;10.054;2022-10-29T07:21:21;101667.81;;;14.83;100.00
48824;BME280;34640;53.590;10.054;2022-10-29T07:23:54;101670.63;;;14.86;100.00
48824;BME280;34640;53.590;10.054;2022-10-29T07:26:28;101670.38;;;14.82;100.00
48824;BME280;34640;53.590;10.054;2022-10-29T07:29:03;101670.44;;;14.83;100.00
48824;BME280;34640;53.590;10.054;2022-10-29T07:31:37;101672.50;;;14.89;100.00
48824;BME280;34640;53.590;10.054;2022-10-29T07:34:11;101664.88;;;14.93;100.00
48824;BME280;34640;53.590;10.054;2022-10-29T07:36:44;101676.75;;;14.87;100.00
48824;BME280;34640;53.590;10.054;2022-10-29T07:39:18;101680.53;;;14.92;100.00
48824;BME280;34640;53.590;10.054;2022-10-29T07:41:51;101681.28;;;14.75;100.00
48824;BME280;34640;53.590;10.054;2022-10-29T07:44:32;101678.22;;;14.82;100.00
48824;BME280;34640;53.590;10.054;2022-10-29T07:47:05;101683.81;;;14.88;100.00
48824;BME280;34640;53.590;10.054;2022-10-29T07:49:39;101690.69;;;15.01;100.00
48824;BME280;34640;53.590;10.054;2022-10-29T07:52:13;101695.88;;;15.15;100.00
48824;BME280;34640;53.590;10.054;2022-10-29T07:54:46;101699.75;;;15.22;100.00
48824;BME280;34640;53.590;10.054;2022-10-29T07:57:20;101704.44;;;15.27;100.00
48824;BME280;34640;53.590;10.054;2022-10-29T07:59:56;101697.38;;;15.26;100.00
48824;BME280;34640;53.590;10.054;2022-10-29T08:02:29;101708.94;;;15.30;100.00
48824;BME280;34640;53.590;10.054;2022-10-29T08:05:03;101697.16;;;15.07;100.00
48824;BME280;34640;53.590;10.054;2022-10-29T08:07:37;101693.31;;;14.86;100.00
48824;BME280;34640;53.590;10.054;2022-10-29T08:10:11;101699.06;;;14.95;100.00
48824;BME280;34640;53.590;10.054;2022-10-29T08:12:48;101704.78;;;15.03;100.00
48824;BME280;34640;53.590;10.054;2022-10-29T08:15:24;101710.63;;;15.13;100.00
48824;BME280;34640;53.590;10.054;2022-10-29T08:17:59;101704.31;;;15.10;100.00
48824;BME280;34640;53.590;10.054;2022-10-29T08:20:33;101706.81;;;15.23;100.00
48824;BME280;34640;53.590;10.054;2022-10-29T08:23:07;101700.25;;;15.31;100.00
48824;BME280;34640;53.590;10.054;2022-10-29T08:25:41;101695.31;;;15.21;100.00
48824;BME280;34640;53.590;10.054;2022-10-29T08:28:15;101684.66;;;15.34;100.00
48824;BME280;34640;53.590;10.054;2022-10-29T08:30:50;101674.94;;;15.17;100.00
48824;BME280;34640;53.590;10.054;2022-10-29T08:33:23;101666.09;;;15.15;100.00
48824;BME280;34640;53.590;10.054;2022-10-29T08:35:57;101661.53;;;15.27;100.00
48824;BME280;34640;53.590;10.054;2022-10-29T08:38:31;101658.94;;;15.43;100.00
48824;BME280;34640;53.590;10.054;2022-10-29T08:41:14;101663.63;;;15.49;100.00
48824;BME280;34640;53.590;10.054;2022-10-29T08:44:03;101663.41;;;15.61;100.00
48824;BME280;34640;53.590;10.054;2022-10-29T08:46:43;101652.25;;;15.65;100.00
48824;BME280;34640;53.590;10.054;2022-10-29T08:49:20;101651.47;;;15.51;100.00
48824;BME280;34640;53.590;10.054;2022-10-29T08:52:01;101649.47;;;15.31;100.00
48824;BME280;34640;53.590;10.054;2022-10-29T08:54:39;101645.63;;;15.24;100.00
48824;BME280;34640;53.590;10.054;2022-10-29T08:57:15;101645.94;;;15.14;100.00
48824;BME280;34640;53.590;10.054;2022-10-29T08:59:59;101638.47;;;15.05;100.00
48824;BME280;34640;53.590;10.054;2022-10-29T09:02:35;101633.28;;;15.07;100.00
48824;BME280;34640;53.590;10.054;2022-10-29T09:05:13;101640.91;;;15.02;100.00
48824;BME280;34640;53.590;10.054;2022-10-29T09:08:07;101655.59;;;15.15;100.00
48824;BME280;34640;53.590;10.054;2022-10-29T09:10:46;101673.50;;;15.22;100.00
48824;BME280;34640;53.590;10.054;2022-10-29T09:13:35;101678.59;;;15.19;100.00
48824;BME280;34640;53.590;10.054;2022-10-29T09:16:22;101675.97;;;15.19;100.00
48824;BME280;34640;53.590;10.054;2022-10-29T09:19:08;101672.28;;;15.32;100.00
48824;BME280;34640;53.590;10.054;2022-10-29T09:21:52;101664.75;;;15.38;100.00
48824;BME280;34640;53.590;10.054;2022-10-29T09:24:32;101668.53;;;15.43;100.00
48824;BME280;34640;53.590;10.054;2022-10-29T09:27:13;101678.72;;;15.53;100.00
48824;BME280;34640;53.590;10.054;2022-10-29T09:30:02;101664.81;;;15.39;100.00
48824;BME280;34640;53.590;10.054;2022-10-29T09:32:39;101664.84;;;15.55;100.00
48824;BME280;34640;53.590;10.054;2022-10-29T09:35:18;101667.44;;;15.70;100.00
48824;BME280;34640;53.590;10.054;2022-10-29T09:37:54;101670.38;;;15.76;100.00
48824;BME280;34640;53.590;10.054;2022-10-29T09:40:32;101661.84;;;15.80;100.00
48824;BME280;34640;53.590;10.054;2022-10-29T09:43:15;101663.09;;;16.21;100.00
48824;BME280;34640;53.590;10.054;2022-10-29T09:45:56;101671.31;;;16.27;100.00
48824;BME280;34640;53.590;10.054;2022-10-29T09:48:34;101656.78;;;16.52;100.00
48824;BME280;34640;53.590;10.054;2022-10-29T09:51:22;101635.22;;;16.25;100.00
48824;BME280;34640;53.590;10.054;2022-10-29T09:53:58;101624.59;;;16.39;100.00
48824;BME280;34640;53.590;10.054;2022-10-29T09:56:32;101624.00;;;16.45;100.00
48824;BME280;34640;53.590;10.054;2022-10-29T09:59:11;101632.03;;;16.48;100.00
48824;BME280;34640;53.590;10.054;2022-10-29T10:01:49;101626.25;;;16.37;100.00
48824;BME280;34640;53.590;10.054;2022-10-29T10:04:27;101621.19;;;16.06;100.00
48824;BME280;34640;53.590;10.054;2022-10-29T10:07:06;101607.75;;;15.84;100.00
48824;BME280;34640;53.590;10.054;2022-10-29T10:09:52;101608.41;;;15.80;100.00
48824;BME280;34640;53.590;10.054;2022-10-29T10:12:27;101609.72;;;15.88;100.00
48824;BME280;34640;53.590;10.054;2022-10-29T10:15:07;101618.22;;;16.00;100.00
48824;BME280;34640;53.590;10.054;2022-10-29T10:17:54;101629.97;;;16.07;100.00
48824;BME280;34640;53.590;10.054;2022-10-29T10:20:37;101623.47;;;16.00;100.00
48824;BME280;34640;53.590;10.054;2022-10-29T10:23:20;101620.47;;;15.93;100.00
48824;BME280;34640;53.590;10.054;2022-10-29T10:25:55;101625.94;;;15.97;100.00
48824;BME280;34640;53.590;10.054;2022-10-29T10:28:37;101620.38;;;16.25;100.00
48824;BME280;34640;53.590;10.054;2022-10-29T10:31:12;101625.19;;;16.34;100.00
48824;BME280;34640;53.590;10.054;2022-10-29T10:33:51;101615.94;;;16.24;100.00
48824;BME280;34640;53.590;10.054;2022-10-29T10:36:27;101627.91;;;16.35;100.00
48824;BME280;34640;53.590;10.054;2022-10-29T10:39:03;101634.34;;;16.24;100.00
48824;BME280;34640;53.590;10.054;2022-10-29T10:41:40;101628.84;;;16.19;100.00
48824;BME280;34640;53.590;10.054;2022-10-29T10:44:15;101628.59;;;16.31;100.00
48824;BME280;34640;53.590;10.054;2022-10-29T10:46:52;101626.78;;;16.30;100.00
48824;BME280;34640;53.590;10.054;2022-10-29T10:49:31;101625.19;;;16.34;100.00
48824;BME280;34640;53.590;10.054;2022-10-29T10:52:14;101619.13;;;16.35;100.00
48824;BME280;34640;53.590;10.054;2022-10-29T10:54:56;101610.56;;;16.39;100.00
48824;BME280;34640;53.590;10.054;2022-10-29T10:57:35;101611.31;;;16.36;100.00
48824;BME280;34640;53.590;10.054;2022-10-29T11:00:16;101598.44;;;16.25;100.00
48824;BME280;34640;53.590;10.054;2022-10-29T11:02:54;101592.59;;;16.30;100.00
48824;BME280;34640;53.590;10.054;2022-10-29T11:05:34;101591.31;;;16.58;100.00
48824;BME280;34640;53.590;10.054;2022-10-29T11:08:14;101599.50;;;16.64;100.00
48824;BME280;34640;53.590;10.054;2022-10-29T11:10:53;101602.22;;;16.65;100.00
48824;BME280;34640;53.590;10.054;2022-10-29T11:13:29;101594.81;;;16.74;100.00
48824;BME280;34640;53.590;10.054;2022-10-29T11:16:12;101600.84;;;16.72;100.00
48824;BME280;34640;53.590;10.054;2022-10-29T11:18:52;101599.75;;;16.68;100.00
48824;BME280;34640;53.590;10.054;2022-10-29T11:21:32;101602.22;;;16.83;100.00
48824;BME280;34640;53.590;10.054;2022-10-29T11:24:09;101595.84;;;16.96;100.00
48824;BME280;34640;53.590;10.054;2022-10-29T11:26:49;101589.06;;;17.01;100.00
48824;BME280;34640;53.590;10.054;2022-10-29T11:29:34;101592.22;;;16.94;100.00
48824;BME280;34640;53.590;10.054;2022-10-29T11:32:15;101597.72;;;16.98;100.00
48824;BME280;34640;53.590;10.054;2022-10-29T11:34:55;101589.25;;;17.05;100.00
48824;BME280;34640;53.590;10.054;2022-10-29T11:37:36;101580.34;;;17.21;100.00
48824;BME280;34640;53.590;10.054;2022-10-29T11:40:18;101577.78;;;17.23;100.00
48824;BME280;34640;53.590;10.054;2022-10-29T11:42:55;101574.31;;;17.24;100.00
48824;BME280;34640;53.590;10.054;2022-10-29T11:45:50;101573.16;;;17.17;100.00
48824;BME280;34640;53.590;10.054;2022-10-29T11:48:36;101568.06;;;17.02;100.00
48824;BME280;34640;53.590;10.054;2022-10-29T11:51:22;101566.19;;;17.00;100.00
48824;BME280;34640;53.590;10.054;2022-10-29T11:54:00;101552.91;;;17.16;100.00
48824;BME280;34640;53.590;10.054;2022-10-29T11:56:47;101552.91;;;17.16;100.00
48824;BME280;34640;53.590;10.054;2022-10-29T11:59:35;101551.31;;;17.20;100.00
48824;BME280;34640;53.590;10.054;2022-10-29T12:02:24;101554.03;;;17.21;100.00
48824;BME280;34640;53.590;10.054;2022-10-29T12:05:06;101553.44;;;17.09;100.00
48824;BME280;34640;53.590;10.054;2022-10-29T12:08:01;101549.31;;;17.14;100.00
48824;BME280;34640;53.590;10.054;2022-10-29T12:10:46;101548.00;;;17.43;100.00
48824;BME280;34640;53.590;10.054;2022-10-29T12:13:30;101552.94;;;17.56;100.00
48824;BME280;34640;53.590;10.054;2022-10-29T12:16:19;101539.25;;;17.44;100.00
48824;BME280;34640;53.590;10.054;2022-10-29T12:19:01;101528.50;;;17.59;100.00
48824;BME280;34640;53.590;10.054;2022-10-29T12:21:44;101520.13;;;17.67;100.00
48824;BME280;34640;53.590;10.054;2022-10-29T12:24:32;101520.03;;;17.66;100.00
48824;BME280;34640;53.590;10.054;2022-10-29T12:27:15;101520.06;;;17.87;100.00
48824;BME280;34640;53.590;10.054;2022-10-29T12:29:57;101515.13;;;17.94;100.00
48824;BME280;34640;53.590;10.054;2022-10-29T12:32:37;101510.56;;;17.90;100.00
48824;BME280;34640;53.590;10.054;2022-10-29T12:35:18;101521.81;;;18.07;100.00
48824;BME280;34640;53.590;10.054;2022-10-29T12:38:08;101525.09;;;18.22;100.00
48824;BME280;34640;53.590;10.054;2022-10-29T12:40:48;101528.03;;;18.30;100.00
48824;BME280;34640;53.590;10.054;2022-10-29T12:43:28;101523.53;;;18.27;100.00
48824;BME280;34640;53.590;10.054;2022-10-29T12:46:10;101523.34;;;18.23;100.00
48824;BME280;34640;53.590;10.054;2022-10-29T12:49:00;101512.72;;;18.21;100.00
48824;BME280;34640;53.590;10.054;2022-10-29T12:51:42;101512.03;;;18.25;100.00
48824;BME280;34640;53.590;10.054;2022-10-29T12:54:34;101513.00;;;18.50;100.00
48824;BME280;34640;53.590;10.054;2022-10-29T12:57:26;101501.41;;;18.67;100.00
48824;BME280;34640;53.590;10.054;2022-10-29T13:00:31;101506.31;;;18.80;100.00
48824;BME280;34640;53.590;10.054;2022-10-29T13:03:06;101507.59;;;18.68;100.00
48824;BME280;34640;53.590;10.054;2022-10-29T13:05:42;101514.91;;;18.54;100.00
48824;BME280;34640;53.590;10.054;2022-10-29T13:08:33;101505.38;;;18.57;100.00
48824;BME280;34640;53.590;10.054;2022-10-29T13:11:20;101505.78;;;18.67;100.00
48824;BME280;34640;53.590;10.054;2022-10-29T13:13:57;101507.81;;;18.74;100.00
48824;BME280;34640;53.590;10.054;2022-10-29T13:16:32;101495.56;;;18.53;100.00
48824;BME280;34640;53.590;10.054;2022-10-29T13:19:20;101491.59;;;18.42;100.00
48824;BME280;34640;53.590;10.054;2022-10-29T13:22:07;101490.66;;;18.62;100.00
48824;BME280;34640;53.590;10.054;2022-10-29T13:28:47;101502.72;;;18.78;100.00
48824;BME280;34640;53.590;10.054;2022-10-29T13:31:45;101496.13;;;18.67;100.00